createdAt,value
2023-04-13T00:01:27.031Z,2.90
2023-04-13T00:04:03.747Z,3.00
2023-04-13T00:06:37.685Z,2.55
2023-04-13T00:12:00.541Z,2.40
2023-04-13T00:14:34.011Z,2.75
2023-04-13T00:17:00.763Z,2.45
2023-04-13T00:20:20.262Z,2.10
2023-04-13T00:22:48.999Z,2.47
2023-04-13T00:28:12.717Z,2.20
2023-04-13T00:30:40.959Z,2.05
2023-04-13T00:33:08.733Z,2.53
2023-04-13T00:36:07.957Z,2.70
2023-04-13T00:38:38.992Z,2.10
2023-04-13T00:41:06.969Z,2.60
2023-04-13T00:43:35.023Z,2.03
2023-04-13T00:46:02.917Z,2.53
2023-04-13T00:48:31.104Z,2.60
2023-04-13T00:51:05.629Z,2.55
2023-04-13T00:53:38.011Z,2.35
2023-04-13T00:56:05.997Z,2.10
2023-04-13T00:58:33.359Z,2.35
2023-04-13T01:01:05.905Z,2.20
2023-04-13T01:03:35.180Z,2.60
2023-04-13T01:06:31.938Z,2.80
2023-04-13T01:09:08.555Z,2.70
2023-04-13T01:11:45.643Z,2.47
2023-04-13T01:14:40.572Z,2.95
2023-04-13T01:17:28.497Z,2.78
2023-04-13T01:19:59.171Z,2.40
2023-04-13T01:23:01.440Z,2.53
2023-04-13T01:25:58.270Z,2.97
2023-04-13T01:28:51.403Z,2.70
2023-04-13T01:34:13.331Z,3.00
2023-04-13T01:36:41.543Z,3.28
2023-04-13T01:39:19.314Z,3.13
2023-04-13T01:41:49.494Z,3.30
2023-04-13T01:47:18.639Z,3.45
2023-04-13T01:50:01.807Z,3.08
2023-04-13T01:52:50.279Z,3.10
2023-04-13T01:55:19.471Z,3.25
2023-04-13T01:57:56.100Z,3.10
2023-04-13T02:00:32.306Z,3.28
2023-04-13T02:03:00.961Z,3.50
2023-04-13T02:05:28.792Z,3.42
2023-04-13T02:07:56.694Z,3.25
2023-04-13T02:10:26.398Z,3.65
2023-04-13T02:12:55.227Z,4.15
2023-04-13T02:18:14.986Z,3.97
2023-04-13T02:20:46.703Z,4.38
2023-04-13T02:23:15.122Z,4.10
2023-04-13T02:25:51.812Z,3.90
2023-04-13T02:28:18.763Z,3.88
2023-04-13T02:30:47.160Z,3.75
2023-04-13T02:33:14.998Z,3.67
2023-04-13T02:35:42.795Z,3.60
2023-04-13T02:38:11.737Z,3.78
2023-04-13T02:40:49.356Z,4.43
2023-04-13T02:43:21.689Z,3.70
2023-04-13T02:45:56.338Z,4.10
2023-04-13T02:48:26.984Z,4.32
2023-04-13T02:50:56.704Z,4.20
2023-04-13T02:53:28.825Z,3.95
2023-04-13T02:56:00.965Z,3.95
2023-04-13T02:58:31.611Z,4.03
2023-04-13T03:01:03.007Z,4.53
2023-04-13T03:03:56.883Z,4.63
2023-04-13T03:06:26.865Z,3.80
2023-04-13T03:08:59.364Z,4.15
2023-04-13T03:11:52.674Z,4.18
2023-04-13T03:14:29.924Z,4.75
2023-04-13T03:17:12.653Z,4.35
2023-04-13T03:19:46.464Z,4.63
2023-04-13T03:22:39.956Z,4.28
2023-04-13T03:25:09.635Z,4.53
2023-04-13T03:27:38.739Z,4.90
2023-04-13T03:30:07.671Z,4.32
2023-04-13T03:32:42.729Z,4.75
2023-04-13T03:35:11.234Z,4.20
2023-04-13T03:37:43.370Z,4.57
2023-04-13T03:40:28.961Z,4.28
2023-04-13T03:42:57.128Z,4.40
2023-04-13T03:48:56.063Z,4.53
2023-04-13T03:51:28.792Z,4.38
2023-04-13T03:54:20.604Z,4.35
2023-04-13T03:56:48.982Z,4.40
2023-04-13T03:59:20.678Z,5.00
2023-04-13T04:01:48.810Z,5.88
2023-04-13T04:04:16.826Z,4.63
2023-04-13T04:06:45.295Z,5.53
2023-04-13T04:09:14.753Z,4.78
2023-04-13T04:11:51.781Z,5.57
2023-04-13T04:20:34.754Z,4.25
2023-04-13T04:23:28.231Z,5.05
2023-04-13T04:26:03.061Z,5.15
2023-04-13T04:29:02.652Z,4.93
2023-04-13T04:31:36.783Z,6.18
2023-04-13T04:34:06.786Z,5.30
2023-04-13T04:36:46.458Z,5.88
2023-04-13T04:39:14.840Z,5.63
2023-04-13T04:42:04.138Z,5.95
2023-04-13T04:44:57.126Z,6.05
2023-04-13T04:47:52.958Z,6.18
2023-04-13T04:50:46.884Z,5.15
2023-04-13T04:53:16.800Z,6.25
2023-04-13T04:56:15.664Z,5.90
2023-04-13T04:58:48.748Z,5.25
2023-04-13T05:01:17.984Z,5.50
2023-04-13T05:03:46.918Z,5.70
2023-04-13T05:06:41.690Z,4.68
2023-04-13T05:09:13.708Z,6.03
2023-04-13T05:11:46.798Z,5.35
2023-04-13T05:14:16.055Z,5.45
2023-04-13T05:19:40.978Z,5.07
2023-04-13T05:22:16.727Z,5.82
2023-04-13T05:32:24.802Z,5.88
2023-04-13T05:34:58.864Z,5.10
2023-04-13T05:37:40.378Z,5.85
2023-04-13T05:43:01.325Z,5.90
2023-04-13T05:54:18.744Z,5.40
2023-04-13T06:11:27.786Z,5.93
2023-04-13T06:14:04.458Z,5.30
2023-04-13T07:31:33.131Z,2.35
2023-04-13T07:39:29.546Z,1.85
2023-04-13T07:41:58.920Z,1.85
2023-04-13T07:44:35.492Z,1.45
2023-04-13T07:50:03.650Z,1.40
2023-04-13T07:52:38.159Z,1.48
2023-04-13T08:00:43.280Z,1.58
2023-04-13T08:05:54.431Z,1.10
2023-04-13T08:08:24.586Z,1.38
2023-04-13T08:10:54.498Z,1.20
2023-04-13T08:19:00.093Z,1.52
2023-04-13T09:53:16.351Z,1.05
2023-04-13T12:23:12.509Z,1.20
2023-04-13T13:25:12.497Z,1.50
2023-04-13T13:30:31.059Z,1.42
2023-04-13T13:47:04.494Z,1.67
2023-04-13T13:49:41.663Z,2.10
2023-04-13T14:01:16.547Z,1.55
2023-04-13T14:09:48.463Z,2.15
2023-04-13T14:12:50.669Z,1.40
2023-04-13T14:15:20.117Z,1.45
2023-04-13T14:18:12.869Z,1.40
2023-04-13T14:20:48.555Z,1.40
2023-04-13T14:23:19.433Z,1.40
2023-04-13T14:26:12.062Z,1.50
2023-04-13T14:28:47.660Z,1.60
2023-04-13T14:31:16.678Z,1.48
2023-04-13T14:33:45.431Z,1.40
2023-04-13T14:42:29.941Z,0.75
2023-04-13T14:45:02.981Z,0.60
2023-04-13T14:47:31.358Z,0.47
2023-04-13T14:50:25.285Z,0.45
2023-04-13T14:52:58.789Z,0.40
2023-04-13T14:55:27.521Z,0.40
2023-04-13T14:57:55.986Z,0.40
2023-04-13T15:00:26.716Z,0.73
2023-04-13T15:03:20.806Z,0.30
2023-04-13T15:05:50.068Z,0.35
2023-04-13T15:08:19.781Z,0.50
2023-04-13T15:10:46.707Z,0.32
2023-04-13T15:13:19.912Z,0.38
2023-04-13T15:15:48.430Z,0.40
2023-04-13T15:18:26.216Z,0.65
2023-04-13T15:20:55.134Z,0.80
2023-04-13T15:23:22.793Z,1.10
2023-04-13T15:25:51.254Z,1.10
2023-04-13T15:28:19.179Z,1.10
2023-04-13T15:30:47.095Z,1.10
2023-04-13T15:33:45.764Z,1.20
2023-04-13T15:36:15.366Z,1.27
2023-04-13T15:44:32.137Z,1.20
2023-04-13T15:47:03.121Z,0.77
2023-04-13T15:49:35.878Z,1.10
2023-04-13T15:52:02.655Z,1.33
2023-04-13T15:54:39.270Z,1.17
2023-04-13T15:57:09.432Z,1.45
2023-04-13T15:59:40.562Z,1.10
2023-04-13T16:18:35.807Z,1.00
2023-04-13T16:26:38.303Z,1.05
2023-04-13T16:34:51.602Z,0.88
2023-04-13T16:37:19.658Z,1.10
2023-04-13T16:39:47.537Z,1.02
2023-04-13T16:42:16.782Z,0.93
2023-04-13T16:44:45.021Z,0.75
2023-04-13T16:50:11.052Z,0.80
2023-04-13T16:52:40.817Z,0.82
2023-04-13T16:55:16.362Z,1.02
2023-04-13T16:57:45.186Z,0.40
2023-04-13T17:00:20.273Z,0.43
2023-04-13T17:02:49.084Z,0.32
2023-04-13T17:05:21.866Z,0.50
2023-04-13T17:07:48.841Z,0.60
2023-04-13T17:10:23.689Z,0.32
2023-04-13T17:12:50.822Z,0.65
2023-04-13T17:15:19.949Z,0.50
2023-04-13T17:17:57.716Z,0.60
2023-04-13T17:20:25.686Z,0.60
2023-04-13T17:22:54.084Z,0.40
2023-04-13T17:25:20.827Z,0.28
2023-04-13T17:27:49.898Z,0.25
2023-04-13T17:30:32.829Z,0.60
2023-04-13T17:36:05.846Z,0.57
2023-04-13T17:38:32.820Z,1.55
2023-04-13T17:41:00.827Z,1.85
2023-04-13T17:43:28.742Z,1.58
2023-04-13T17:49:13.144Z,1.02
2023-04-13T17:51:45.766Z,1.00
2023-04-13T17:54:12.716Z,1.35
2023-04-13T17:56:40.673Z,1.30
2023-04-13T17:59:13.123Z,1.52
2023-04-13T18:01:43.295Z,1.70
2023-04-13T18:04:16.891Z,1.60
2023-04-13T18:06:44.885Z,1.60
2023-04-13T18:09:13.084Z,2.30
2023-04-13T18:11:40.711Z,1.88
2023-04-13T18:14:13.031Z,1.90
2023-04-13T18:16:40.838Z,2.10
2023-04-13T18:19:13.712Z,2.50
2023-04-13T18:21:40.759Z,2.13
2023-04-13T18:24:34.756Z,2.13
2023-04-13T18:27:02.998Z,2.10
2023-04-13T18:29:30.702Z,4.32
2023-04-13T18:31:58.756Z,4.03
2023-04-13T18:34:29.632Z,3.88
2023-04-13T18:37:04.822Z,4.68
2023-04-13T18:39:40.786Z,4.88
2023-04-13T18:42:39.830Z,5.95
2023-04-13T18:45:07.222Z,5.40
2023-04-13T18:47:35.547Z,6.15
2023-04-13T18:50:02.943Z,7.35
2023-04-13T18:52:30.952Z,8.90
2023-04-13T18:54:59.044Z,6.38
2023-04-13T18:57:27.568Z,4.78
2023-04-13T19:00:00.908Z,2.92
2023-04-13T19:02:28.865Z,3.13
2023-04-13T19:07:58.616Z,4.10
2023-04-13T19:10:28.253Z,4.18
2023-04-13T19:12:57.279Z,5.43
2023-04-13T19:18:13.315Z,3.30
2023-04-13T19:23:33.109Z,3.80
2023-04-13T19:26:15.458Z,3.95
2023-04-13T19:28:42.944Z,3.88
2023-04-13T19:31:17.239Z,3.17
2023-04-13T19:33:46.495Z,3.45
2023-04-13T19:36:39.733Z,3.10
2023-04-13T19:39:08.425Z,3.00
2023-04-13T19:41:41.284Z,2.90
2023-04-13T19:44:16.895Z,2.92
2023-04-13T19:46:48.095Z,2.78
2023-04-13T19:49:17.873Z,3.33
2023-04-13T19:51:48.427Z,3.17
2023-04-13T19:54:17.428Z,2.75
2023-04-13T19:56:44.958Z,2.80
2023-04-13T19:59:13.292Z,2.83
2023-04-13T20:01:41.567Z,2.50
2023-04-13T20:04:13.769Z,2.65
2023-04-13T20:06:41.154Z,2.92
2023-04-13T20:09:12.921Z,2.58
2023-04-13T20:11:48.637Z,2.75
2023-04-13T20:14:23.986Z,3.17
2023-04-13T20:17:16.810Z,2.97
2023-04-13T20:19:49.816Z,3.17
2023-04-13T20:22:20.021Z,3.08
2023-04-13T20:24:50.612Z,2.60
2023-04-13T20:27:21.737Z,2.80
2023-04-13T20:29:49.928Z,2.85
2023-04-13T20:32:19.748Z,2.90
2023-04-13T20:34:54.225Z,3.25
2023-04-13T20:37:23.557Z,3.05
2023-04-13T20:39:51.039Z,3.50
2023-04-13T20:42:23.892Z,3.35
2023-04-13T20:45:00.393Z,3.10
2023-04-13T20:47:56.042Z,3.10
2023-04-13T20:50:49.008Z,2.88
2023-04-13T20:53:18.261Z,3.00
2023-04-13T20:55:52.581Z,3.63
2023-04-13T20:58:24.982Z,3.33
2023-04-13T21:00:52.989Z,3.45
2023-04-13T21:03:22.012Z,3.45
2023-04-13T21:08:46.829Z,3.83
2023-04-13T21:11:20.490Z,4.10
2023-04-13T21:14:13.244Z,4.88
2023-04-13T21:16:41.206Z,5.70
2023-04-13T21:19:08.829Z,5.45
2023-04-13T21:21:36.793Z,5.65
2023-04-13T21:24:05.428Z,5.30
2023-04-13T21:29:24.821Z,4.50
2023-04-13T21:32:19.077Z,3.97
2023-04-13T21:34:47.032Z,3.95
2023-04-13T21:37:15.070Z,3.55
2023-04-13T21:39:42.806Z,3.45
2023-04-13T21:42:10.942Z,3.20
2023-04-13T21:44:43.788Z,3.08
2023-04-13T21:47:11.060Z,3.90
2023-04-13T21:49:39.045Z,3.53
2023-04-13T21:52:06.957Z,3.72
2023-04-13T21:54:35.040Z,3.10
2023-04-13T21:57:06.945Z,3.20
2023-04-13T21:59:34.756Z,3.20
2023-04-13T22:02:03.217Z,2.90
2023-04-13T22:04:31.503Z,3.30
2023-04-13T22:06:58.796Z,2.97
2023-04-13T22:09:32.176Z,3.08
2023-04-13T22:12:01.062Z,3.10
2023-04-13T22:14:30.764Z,3.30
2023-04-13T22:16:59.826Z,3.60
2023-04-13T22:19:53.491Z,3.50
2023-04-13T22:22:20.949Z,3.38
2023-04-13T22:24:56.640Z,3.65
2023-04-13T22:27:25.559Z,3.38
2023-04-13T22:32:51.985Z,3.13
2023-04-13T22:35:25.823Z,3.80
2023-04-13T22:37:52.829Z,3.70
2023-04-13T22:40:20.863Z,3.65
2023-04-13T22:45:42.395Z,3.78
2023-04-13T22:48:16.480Z,4.05
2023-04-13T22:50:44.669Z,4.25
2023-04-13T22:53:12.758Z,4.18
2023-04-13T22:55:41.844Z,3.78
2023-04-13T22:58:08.808Z,3.50
2023-04-13T23:00:36.941Z,3.55
2023-04-13T23:03:05.087Z,3.70
2023-04-13T23:05:34.479Z,3.30
2023-04-13T23:08:27.879Z,4.03
2023-04-13T23:10:54.877Z,3.65
2023-04-13T23:13:22.881Z,3.38
2023-04-13T23:15:59.426Z,3.67
2023-04-13T23:18:32.520Z,4.03
2023-04-13T23:21:13.878Z,3.50
2023-04-13T23:23:45.771Z,3.45
2023-04-13T23:26:38.842Z,3.67
2023-04-13T23:29:11.788Z,3.67
2023-04-13T23:31:39.016Z,3.40
2023-04-13T23:34:06.749Z,3.40
2023-04-13T23:36:39.331Z,3.55
2023-04-13T23:41:58.796Z,3.35
2023-04-13T23:44:27.320Z,3.45
2023-04-13T23:46:55.531Z,3.67
2023-04-13T23:49:28.939Z,3.53
2023-04-13T23:51:56.710Z,3.17
2023-04-13T23:54:24.724Z,4.18
2023-04-13T23:56:52.696Z,3.35
2023-04-13T23:59:25.968Z,3.25
